createdAt,value
2022-12-22T00:02:00.016Z,1.00
2022-12-22T00:04:46.331Z,1.17
2022-12-22T00:07:32.415Z,1.30
2022-12-22T00:10:18.625Z,1.03
2022-12-22T00:13:04.775Z,0.90
2022-12-22T00:15:53.927Z,0.97
2022-12-22T00:18:40.131Z,0.83
2022-12-22T00:21:30.106Z,0.97
2022-12-22T00:24:17.341Z,0.90
2022-12-22T00:27:04.490Z,0.60
2022-12-22T00:29:56.282Z,0.80
2022-12-22T00:32:51.383Z,0.70
2022-12-22T00:35:41.430Z,0.60
2022-12-22T00:38:38.840Z,0.70
2022-12-22T00:41:25.558Z,0.60
2022-12-22T00:44:11.750Z,0.43
2022-12-22T00:47:01.479Z,0.97
2022-12-22T00:49:49.947Z,1.17
2022-12-22T00:52:38.279Z,0.53
2022-12-22T00:55:36.183Z,0.50
2022-12-22T00:58:25.096Z,0.57
2022-12-22T01:01:11.198Z,0.50
2022-12-22T01:03:57.063Z,0.80
2022-12-22T01:06:47.487Z,0.60
2022-12-22T01:09:33.929Z,1.20
2022-12-22T01:12:19.966Z,0.60
2022-12-22T01:15:06.081Z,0.87
2022-12-22T01:17:52.246Z,0.50
2022-12-22T01:20:38.259Z,0.70
2022-12-22T01:23:29.340Z,1.63
2022-12-22T01:26:15.398Z,0.93
2022-12-22T01:29:01.296Z,0.70
2022-12-22T01:31:51.397Z,0.53
2022-12-22T01:34:37.429Z,0.60
2022-12-22T01:37:23.380Z,0.73
2022-12-22T01:40:09.816Z,1.63
2022-12-22T01:42:56.064Z,0.77
2022-12-22T01:45:44.007Z,1.03
2022-12-22T01:48:32.177Z,1.50
2022-12-22T01:51:21.855Z,0.73
2022-12-22T01:54:08.619Z,1.47
2022-12-22T01:56:54.872Z,0.77
2022-12-22T01:59:41.179Z,1.70
2022-12-22T02:02:28.201Z,1.23
2022-12-22T02:05:18.546Z,0.93
2022-12-22T02:08:17.903Z,1.27
2022-12-22T02:11:12.394Z,0.97
2022-12-22T02:14:17.046Z,1.93
2022-12-22T02:17:05.787Z,1.00
2022-12-22T02:19:54.741Z,1.90
2022-12-22T02:22:51.790Z,0.90
2022-12-22T02:25:45.115Z,2.27
2022-12-22T02:28:31.376Z,1.07
2022-12-22T02:31:17.542Z,0.80
2022-12-22T02:34:03.772Z,1.23
2022-12-22T02:37:21.826Z,1.40
2022-12-22T02:40:10.719Z,1.20
2022-12-22T02:43:07.633Z,1.60
2022-12-22T02:46:20.646Z,1.20
2022-12-22T02:49:39.713Z,1.40
2022-12-22T02:52:39.205Z,1.00
2022-12-22T02:55:26.721Z,1.77
2022-12-22T02:58:12.873Z,1.77
2022-12-22T03:00:59.019Z,2.00
2022-12-22T03:03:45.186Z,1.60
2022-12-22T03:06:31.248Z,1.10
2022-12-22T03:09:17.250Z,1.50
2022-12-22T03:12:03.349Z,3.83
2022-12-22T03:14:49.650Z,2.43
2022-12-22T03:17:35.837Z,1.47
2022-12-22T03:20:22.077Z,2.57
2022-12-22T03:23:08.163Z,1.33
2022-12-22T03:25:50.996Z,3.73
2022-12-22T03:28:18.996Z,4.27
2022-12-22T03:30:52.406Z,2.97
2022-12-22T03:33:19.960Z,1.40
2022-12-22T03:35:47.491Z,4.63
2022-12-22T03:38:15.022Z,1.83
2022-12-22T03:40:44.581Z,2.10
2022-12-22T03:43:32.478Z,2.20
2022-12-22T03:46:19.340Z,2.55
2022-12-22T03:49:05.902Z,1.93
2022-12-22T03:51:34.844Z,2.87
2022-12-22T03:54:02.286Z,3.03
2022-12-22T03:56:29.756Z,2.03
2022-12-22T03:58:57.346Z,2.40
2022-12-22T04:01:25.036Z,3.33
2022-12-22T04:03:52.555Z,2.63
2022-12-22T04:06:20.324Z,5.37
2022-12-22T04:08:47.792Z,3.33
2022-12-22T04:11:35.569Z,2.47
2022-12-22T04:14:05.509Z,2.33
2022-12-22T04:16:40.635Z,2.63
2022-12-22T04:19:10.011Z,2.93
2022-12-22T04:21:38.126Z,3.90
2022-12-22T04:24:06.131Z,2.90
2022-12-22T04:26:33.917Z,3.47
2022-12-22T04:29:01.488Z,4.43
2022-12-22T04:31:29.137Z,2.70
2022-12-22T04:33:56.735Z,2.30
2022-12-22T04:36:24.367Z,5.27
2022-12-22T04:38:51.923Z,3.40
2022-12-22T04:41:19.489Z,3.40
2022-12-22T04:43:49.433Z,9.47
2022-12-22T04:46:17.112Z,3.97
2022-12-22T04:48:44.728Z,4.90
2022-12-22T04:51:12.323Z,4.50
2022-12-22T04:53:39.765Z,9.63
2022-12-22T04:56:10.038Z,7.30
2022-12-22T04:58:37.638Z,3.20
2022-12-22T05:01:13.601Z,7.07
2022-12-22T05:03:41.384Z,5.93
2022-12-22T05:06:09.390Z,10.83
2022-12-22T05:08:37.398Z,5.03
2022-12-22T05:11:05.491Z,3.80
2022-12-22T05:13:33.361Z,3.90
2022-12-22T05:16:11.412Z,7.13
2022-12-22T05:18:40.420Z,3.40
2022-12-22T05:21:14.570Z,4.17
2022-12-22T05:23:42.470Z,8.53
2022-12-22T05:26:10.764Z,6.43
2022-12-22T05:28:38.281Z,5.93
2022-12-22T05:31:08.364Z,6.53
2022-12-22T05:33:36.849Z,6.07
2022-12-22T05:36:04.717Z,8.37
2022-12-22T05:38:32.275Z,7.57
2022-12-22T05:41:03.811Z,10.93
2022-12-22T05:43:33.231Z,5.77
2022-12-22T05:46:09.920Z,6.97
2022-12-22T05:48:39.605Z,6.25
2022-12-22T05:51:09.297Z,7.07
2022-12-22T05:53:37.977Z,12.83
2022-12-22T05:56:06.547Z,5.50
2022-12-22T05:58:35.236Z,9.40
2022-12-22T06:01:02.953Z,7.83
2022-12-22T06:03:30.927Z,6.93
2022-12-22T06:05:58.979Z,9.80
2022-12-22T06:08:27.534Z,7.20
2022-12-22T06:10:57.139Z,6.33
2022-12-22T06:13:25.997Z,8.90
2022-12-22T06:15:53.692Z,8.40
2022-12-22T06:18:21.589Z,5.10
2022-12-22T06:20:51.823Z,7.80
2022-12-22T06:23:19.778Z,9.63
2022-12-22T06:26:01.246Z,7.40
2022-12-22T06:28:29.230Z,6.23
2022-12-22T06:30:56.828Z,7.30
2022-12-22T06:33:24.551Z,6.30
2022-12-22T06:35:58.017Z,5.47
2022-12-22T06:38:27.384Z,10.23
2022-12-22T06:40:54.909Z,9.10
2022-12-22T06:43:22.487Z,9.67
2022-12-22T06:45:49.941Z,7.90
2022-12-22T06:48:17.557Z,7.77
2022-12-22T06:50:45.269Z,8.17
2022-12-22T06:53:12.930Z,7.63
2022-12-22T06:55:40.409Z,10.50
2022-12-22T06:58:08.248Z,7.70
2022-12-22T07:00:35.848Z,8.67
2022-12-22T07:03:03.560Z,7.73
2022-12-22T07:05:32.122Z,8.13
2022-12-22T07:08:05.736Z,8.93
2022-12-22T07:10:54.643Z,9.80
2022-12-22T07:13:24.210Z,5.73
2022-12-22T07:15:59.584Z,5.90
2022-12-22T07:18:33.444Z,8.30
2022-12-22T07:21:02.865Z,8.10
2022-12-22T07:23:30.888Z,6.17
2022-12-22T07:25:59.109Z,6.07
2022-12-22T07:28:26.988Z,13.10
2022-12-22T07:30:55.169Z,8.47
2022-12-22T07:33:22.726Z,7.03
2022-12-22T07:36:01.387Z,8.23
2022-12-22T07:38:28.887Z,11.07
2022-12-22T07:41:04.609Z,6.70
2022-12-22T07:43:33.090Z,6.70
2022-12-22T07:46:00.688Z,10.80
2022-12-22T07:48:47.283Z,10.87
2022-12-22T07:51:14.883Z,7.67
2022-12-22T07:53:44.524Z,7.80
2022-12-22T07:56:12.258Z,7.93
2022-12-22T07:58:39.796Z,5.97
2022-12-22T08:01:07.371Z,9.70
2022-12-22T08:03:34.868Z,10.60
2022-12-22T08:06:04.962Z,6.97
2022-12-22T08:08:33.881Z,8.63
2022-12-22T08:11:05.611Z,7.03
2022-12-22T08:13:33.170Z,6.10
2022-12-22T08:16:08.138Z,6.60
2022-12-22T08:18:36.784Z,13.30
2022-12-22T08:21:07.742Z,11.47
2022-12-22T08:23:36.078Z,7.33
2022-12-22T08:26:14.868Z,8.30
2022-12-22T08:28:57.977Z,10.70
2022-12-22T08:31:27.608Z,9.67
2022-12-22T08:33:57.214Z,7.63
2022-12-22T08:36:25.063Z,8.67
2022-12-22T08:38:52.889Z,7.30
2022-12-22T08:41:40.359Z,7.90
2022-12-22T08:44:08.016Z,8.77
2022-12-22T08:46:35.516Z,10.07
2022-12-22T08:49:03.078Z,11.03
2022-12-22T08:51:30.644Z,9.17
2022-12-22T08:54:06.489Z,9.90
2022-12-22T08:56:35.489Z,8.37
2022-12-22T08:59:05.542Z,7.50
2022-12-22T09:01:34.512Z,13.43
2022-12-22T09:04:02.969Z,8.90
2022-12-22T09:06:36.530Z,10.83
2022-12-22T09:09:10.325Z,9.90
2022-12-22T09:11:38.585Z,9.97
2022-12-22T09:14:07.400Z,8.63
2022-12-22T09:16:35.783Z,8.33
2022-12-22T09:19:03.840Z,10.77
2022-12-22T09:21:31.442Z,8.67
2022-12-22T09:23:59.567Z,9.70
2022-12-22T09:26:29.137Z,8.33
2022-12-22T09:28:57.857Z,10.37
2022-12-22T09:31:26.426Z,10.97
2022-12-22T09:33:54.223Z,13.40
2022-12-22T09:36:24.657Z,10.27
2022-12-22T09:38:52.775Z,9.07
2022-12-22T09:41:46.348Z,8.43
2022-12-22T09:44:22.594Z,9.13
2022-12-22T09:46:50.988Z,12.23
2022-12-22T09:49:20.070Z,12.27
2022-12-22T09:52:09.750Z,10.67
2022-12-22T09:54:37.248Z,10.23
2022-12-22T09:57:11.527Z,10.27
2022-12-22T09:59:39.042Z,8.20
2022-12-22T10:02:57.687Z,9.33
2022-12-22T10:05:38.691Z,13.53
2022-12-22T10:08:15.555Z,8.27
2022-12-22T10:10:43.186Z,11.85
2022-12-22T10:13:20.913Z,10.57
2022-12-22T10:15:49.284Z,12.23
2022-12-22T10:18:20.625Z,10.87
2022-12-22T10:21:09.575Z,9.63
2022-12-22T10:23:44.584Z,12.17
2022-12-22T10:26:28.725Z,11.00
2022-12-22T10:29:06.102Z,10.60
2022-12-22T10:31:37.107Z,9.97
2022-12-22T10:34:17.140Z,11.73
2022-12-22T10:36:49.865Z,11.50
2022-12-22T10:39:33.561Z,11.73
2022-12-22T10:42:08.940Z,11.03
2022-12-22T10:44:38.674Z,12.27
2022-12-22T10:47:20.518Z,9.83
2022-12-22T10:52:29.574Z,10.60
2022-12-22T10:55:21.082Z,11.53
2022-12-22T10:57:49.921Z,9.50
2022-12-22T11:00:25.356Z,9.93
2022-12-22T11:02:58.019Z,14.10
2022-12-22T11:05:26.032Z,13.37
2022-12-22T11:07:54.187Z,10.70
2022-12-22T11:10:35.956Z,12.70
2022-12-22T11:13:42.311Z,11.70
2022-12-22T11:16:25.333Z,8.50
2022-12-22T11:18:55.893Z,12.23
2022-12-22T11:21:32.171Z,11.07
2022-12-22T11:24:24.191Z,9.60
2022-12-22T11:27:14.821Z,12.87
2022-12-22T11:30:00.374Z,10.50
2022-12-22T11:32:48.877Z,14.30
2022-12-22T11:35:42.480Z,14.13
2022-12-22T11:38:26.488Z,12.87
2022-12-22T11:41:32.200Z,12.07
2022-12-22T11:44:37.466Z,12.40
2022-12-22T11:47:29.180Z,11.10
2022-12-22T11:51:01.472Z,12.50
2022-12-22T11:53:17.014Z,11.03
2022-12-22T11:56:06.891Z,9.13
2022-12-22T11:58:46.157Z,10.60
2022-12-22T12:01:41.149Z,10.83
2022-12-22T12:04:16.568Z,9.93
2022-12-22T12:07:05.823Z,14.27
2022-12-22T12:10:11.945Z,10.93
2022-12-22T12:13:06.464Z,11.53
2022-12-22T12:15:40.404Z,10.37
2022-12-22T12:18:26.999Z,10.43
2022-12-22T12:21:12.679Z,10.13
2022-12-22T12:23:42.746Z,10.80
2022-12-22T12:26:18.775Z,11.47
2022-12-22T12:28:58.011Z,10.57
2022-12-22T12:31:33.509Z,8.93
2022-12-22T12:34:03.407Z,10.47
2022-12-22T12:37:26.781Z,11.40
2022-12-22T12:40:15.830Z,13.33
2022-12-22T12:42:46.556Z,10.00
2022-12-22T12:45:42.842Z,12.70
2022-12-22T12:48:37.049Z,13.43
2022-12-22T12:51:43.046Z,10.37
2022-12-22T12:54:38.868Z,13.20
2022-12-22T12:57:47.881Z,10.13
2022-12-22T13:00:35.711Z,11.15
2022-12-22T13:03:19.921Z,10.45
2022-12-22T13:06:00.933Z,10.03
2022-12-22T13:08:30.309Z,24.97
2022-12-22T13:10:57.712Z,9.33
2022-12-22T13:13:25.177Z,9.97
2022-12-22T13:16:04.661Z,12.87
2022-12-22T13:18:35.009Z,9.83
2022-12-22T13:24:24.232Z,9.60
2022-12-22T13:26:57.162Z,7.53
2022-12-22T13:29:41.188Z,7.83
2022-12-22T13:32:25.779Z,12.37
2022-12-22T13:37:45.523Z,11.95
2022-12-22T13:40:23.278Z,8.57
2022-12-22T13:42:53.023Z,9.50
2022-12-22T13:45:43.327Z,9.43
2022-12-22T13:48:21.317Z,9.10
2022-12-22T13:50:52.628Z,9.43
2022-12-22T13:54:08.520Z,8.20
2022-12-22T13:56:38.527Z,12.17
2022-12-22T13:59:24.734Z,8.07
2022-12-22T14:02:15.642Z,10.23
2022-12-22T14:05:03.708Z,7.43
2022-12-22T14:07:31.723Z,10.93
2022-12-22T14:09:59.331Z,11.40
2022-12-22T14:12:30.647Z,7.13
2022-12-22T14:15:01.371Z,9.07
2022-12-22T14:17:33.842Z,10.80
2022-12-22T14:20:16.228Z,8.60
2022-12-22T14:22:53.163Z,16.50
2022-12-22T14:25:32.383Z,7.80
2022-12-22T14:28:00.972Z,8.87
2022-12-22T14:30:38.552Z,8.50
2022-12-22T14:33:28.081Z,7.27
2022-12-22T14:36:20.798Z,5.83
2022-12-22T14:39:02.520Z,7.30
2022-12-22T14:41:46.986Z,13.23
2022-12-22T14:44:15.930Z,7.50
2022-12-22T14:46:45.223Z,7.93
2022-12-22T14:49:16.723Z,9.70
2022-12-22T14:52:01.367Z,7.60
2022-12-22T14:54:29.419Z,7.17
2022-12-22T14:57:08.503Z,5.70
2022-12-22T14:59:40.765Z,6.57
2022-12-22T15:02:26.479Z,7.07
2022-12-22T15:05:08.474Z,6.07
2022-12-22T15:08:05.348Z,7.40
2022-12-22T15:10:39.967Z,8.50
2022-12-22T15:13:16.137Z,7.73
2022-12-22T15:15:44.243Z,8.50
2022-12-22T15:18:14.725Z,8.40
2022-12-22T15:20:42.394Z,8.13
2022-12-22T15:23:17.381Z,7.40
2022-12-22T15:25:45.837Z,7.67
2022-12-22T15:28:14.002Z,12.27
2022-12-22T15:30:42.270Z,11.13
2022-12-22T15:33:18.746Z,7.57
2022-12-22T15:35:46.829Z,9.80
2022-12-22T15:38:16.986Z,7.57
2022-12-22T15:40:44.715Z,8.57
2022-12-22T15:43:36.768Z,9.40
2022-12-22T15:46:01.602Z,10.87
2022-12-22T15:48:33.191Z,9.37
2022-12-22T15:51:06.005Z,10.13
2022-12-22T15:53:34.649Z,7.97
2022-12-22T15:56:05.036Z,14.10
2022-12-22T15:58:36.443Z,10.63
2022-12-22T16:01:04.256Z,13.17
2022-12-22T16:03:31.883Z,12.53
2022-12-22T16:06:00.735Z,10.33
2022-12-22T16:08:33.283Z,8.73
2022-12-22T16:11:00.853Z,8.67
2022-12-22T16:13:29.331Z,11.40
2022-12-22T16:15:58.574Z,10.60
2022-12-22T16:18:26.337Z,11.27
2022-12-22T16:20:54.800Z,10.77
2022-12-22T16:23:25.941Z,10.97
2022-12-22T16:26:00.988Z,15.23
2022-12-22T16:28:29.821Z,9.00
2022-12-22T16:30:57.621Z,9.17
2022-12-22T16:33:25.198Z,10.17
2022-12-22T16:35:52.697Z,9.80
2022-12-22T16:38:20.161Z,8.93
2022-12-22T16:40:51.645Z,11.87
2022-12-22T16:43:51.267Z,11.40
2022-12-22T16:46:29.343Z,11.07
2022-12-22T16:49:01.222Z,10.27
2022-12-22T16:51:36.932Z,11.17
2022-12-22T16:54:04.716Z,10.33
2022-12-22T16:56:32.969Z,7.20
2022-12-22T16:59:03.058Z,9.30
2022-12-22T17:01:49.453Z,8.37
2022-12-22T17:04:26.034Z,9.38
2022-12-22T17:06:55.315Z,10.13
2022-12-22T17:09:31.226Z,9.67
2022-12-22T17:12:01.100Z,10.97
2022-12-22T17:14:39.481Z,8.70
2022-12-22T17:17:30.831Z,8.70
2022-12-22T17:19:59.567Z,11.53
2022-12-22T17:22:30.171Z,10.17
2022-12-22T17:25:02.376Z,8.47
2022-12-22T17:27:32.676Z,8.77
2022-12-22T17:30:03.689Z,10.23
2022-12-22T17:32:31.970Z,9.73
2022-12-22T17:34:59.467Z,10.20
2022-12-22T17:37:27.105Z,9.97
2022-12-22T17:39:59.236Z,9.60
2022-12-22T17:42:26.878Z,10.27
2022-12-22T17:44:54.414Z,9.07
2022-12-22T17:47:30.446Z,13.90
2022-12-22T17:49:59.961Z,12.13
2022-12-22T17:52:28.314Z,11.57
2022-12-22T17:54:56.003Z,11.73
2022-12-22T17:57:33.052Z,11.23
2022-12-22T18:00:00.919Z,11.15
2022-12-22T18:02:29.789Z,10.60
2022-12-22T18:04:57.552Z,14.23
2022-12-22T18:07:25.406Z,10.03
2022-12-22T18:09:59.144Z,10.37
2022-12-22T18:12:26.869Z,13.27
2022-12-22T18:14:54.506Z,13.23
2022-12-22T18:17:34.878Z,11.73
2022-12-22T18:20:05.689Z,13.50
2022-12-22T18:22:33.203Z,11.80
2022-12-22T18:25:00.850Z,11.10
2022-12-22T18:27:28.667Z,12.33
2022-12-22T18:29:56.117Z,12.97
2022-12-22T18:32:27.788Z,14.87
2022-12-22T18:34:55.543Z,12.50
2022-12-22T18:37:23.464Z,12.80
2022-12-22T18:39:50.973Z,12.20
2022-12-22T18:42:22.013Z,17.40
2022-12-22T18:44:51.040Z,13.57
2022-12-22T18:47:19.248Z,13.73
2022-12-22T18:49:47.080Z,11.57
2022-12-22T18:52:20.489Z,11.40
2022-12-22T18:54:48.993Z,11.30
2022-12-22T18:57:19.596Z,14.47
2022-12-22T18:59:48.342Z,10.63
2022-12-22T19:02:30.801Z,11.57
2022-12-22T19:04:59.596Z,9.43
2022-12-22T19:07:27.475Z,10.23
2022-12-22T19:09:54.937Z,12.67
2022-12-22T19:12:23.427Z,12.93
2022-12-22T19:14:54.315Z,10.20
2022-12-22T19:17:25.508Z,9.23
2022-12-22T19:19:53.093Z,9.53
2022-12-22T19:22:20.787Z,10.60
2022-12-22T19:24:49.162Z,12.20
2022-12-22T19:27:26.129Z,9.67
2022-12-22T19:30:03.072Z,9.95
2022-12-22T19:32:41.298Z,10.90
2022-12-22T19:35:20.766Z,9.63
2022-12-22T19:37:50.124Z,8.80
2022-12-22T19:40:19.938Z,8.70
2022-12-22T19:42:50.160Z,11.07
2022-12-22T19:45:21.929Z,9.07
2022-12-22T19:47:50.800Z,9.10
2022-12-22T19:50:23.457Z,8.53
2022-12-22T19:52:52.228Z,13.80
2022-12-22T19:55:21.182Z,8.53
2022-12-22T19:57:51.980Z,12.23
2022-12-22T20:00:19.910Z,13.17
2022-12-22T20:02:49.479Z,12.80
2022-12-22T20:05:22.867Z,11.60
2022-12-22T20:07:56.839Z,11.20
2022-12-22T20:10:26.205Z,10.30
2022-12-22T20:12:57.111Z,12.97
2022-12-22T20:15:31.626Z,12.97
2022-12-22T20:17:59.764Z,10.13
2022-12-22T20:20:33.346Z,11.83
2022-12-22T20:23:11.388Z,9.70
2022-12-22T20:25:42.091Z,12.30
2022-12-22T20:28:31.388Z,14.07
2022-12-22T20:31:10.712Z,10.57
2022-12-22T20:33:38.487Z,11.83
2022-12-22T20:36:32.357Z,10.90
2022-12-22T20:39:02.183Z,9.70
2022-12-22T20:41:29.708Z,10.67
2022-12-22T20:43:57.264Z,12.67
2022-12-22T20:46:27.261Z,10.47
2022-12-22T20:49:04.629Z,11.97
2022-12-22T20:51:33.796Z,11.38
2022-12-22T20:54:01.645Z,11.07
2022-12-22T20:56:32.773Z,11.03
2022-12-22T20:59:12.384Z,10.77
2022-12-22T21:01:40.029Z,10.03
2022-12-22T21:04:07.594Z,11.83
2022-12-22T21:06:38.880Z,9.97
2022-12-22T21:09:06.488Z,11.23
2022-12-22T21:11:35.000Z,15.20
2022-12-22T21:14:02.575Z,10.97
2022-12-22T21:16:31.710Z,10.77
2022-12-22T21:18:59.268Z,10.10
2022-12-22T21:21:26.803Z,11.17
2022-12-22T21:23:54.351Z,10.83
2022-12-22T21:26:47.525Z,10.67
2022-12-22T21:29:21.949Z,9.97
2022-12-22T21:31:49.655Z,9.80
2022-12-22T21:34:17.213Z,10.07
2022-12-22T21:36:47.529Z,9.60
2022-12-22T21:39:20.993Z,9.23
2022-12-22T21:42:00.365Z,9.10
2022-12-22T21:44:29.248Z,11.70
2022-12-22T21:46:57.391Z,11.80
2022-12-22T21:49:28.700Z,10.00
2022-12-22T21:51:56.363Z,12.20
2022-12-22T21:54:25.430Z,9.37
2022-12-22T21:56:54.073Z,12.37
2022-12-22T21:59:22.183Z,10.63
2022-12-22T22:01:53.010Z,10.20
2022-12-22T22:04:21.139Z,10.93
2022-12-22T22:06:49.000Z,7.77
2022-12-22T22:09:16.670Z,9.30
2022-12-22T22:12:02.754Z,8.93
2022-12-22T22:14:30.322Z,7.70
2022-12-22T22:16:57.822Z,12.77
2022-12-22T22:19:25.355Z,8.97
2022-12-22T22:21:52.921Z,8.20
2022-12-22T22:24:20.481Z,8.27
2022-12-22T22:26:49.290Z,6.77
2022-12-22T22:29:16.903Z,6.87
2022-12-22T22:31:44.736Z,7.50
2022-12-22T22:34:12.304Z,6.87
2022-12-22T22:36:39.845Z,7.13
2022-12-22T22:39:07.416Z,8.63
2022-12-22T22:41:41.014Z,6.73
2022-12-22T22:44:11.050Z,9.30
2022-12-22T22:46:38.607Z,6.13
2022-12-22T22:49:06.540Z,6.17
2022-12-22T22:51:34.225Z,6.53
2022-12-22T22:54:01.819Z,6.30
2022-12-22T22:56:29.371Z,6.37
2022-12-22T22:58:59.101Z,6.33
2022-12-22T23:01:26.794Z,6.23
2022-12-22T23:03:54.378Z,7.37
2022-12-22T23:06:22.146Z,8.73
2022-12-22T23:08:49.927Z,6.47
2022-12-22T23:11:17.872Z,5.93
2022-12-22T23:13:45.640Z,6.23
2022-12-22T23:16:13.336Z,5.70
2022-12-22T23:18:43.039Z,5.80
2022-12-22T23:21:11.464Z,6.30
2022-12-22T23:23:39.082Z,5.83
2022-12-22T23:26:06.777Z,6.93
2022-12-22T23:28:34.364Z,6.53
2022-12-22T23:31:02.249Z,7.30
2022-12-22T23:33:32.269Z,5.37
2022-12-22T23:35:59.880Z,6.80
2022-12-22T23:38:27.434Z,7.77
2022-12-22T23:41:10.989Z,7.30
2022-12-22T23:43:40.931Z,6.47
2022-12-22T23:46:16.572Z,5.37
2022-12-22T23:48:44.326Z,6.17
2022-12-22T23:51:12.250Z,8.87
2022-12-22T23:53:39.860Z,7.50
2022-12-22T23:56:07.509Z,6.37
2022-12-22T23:58:35.225Z,6.20
